sensor_id;sensor_type;location;lat;lon;timestamp;P1;durP1;ratioP1;P2;durP2;ratioP2
48647;SDS011;34437;-33.956;151.076;2023-03-03T00:02:11;1.88;;;1.30;;
48647;SDS011;34437;-33.956;151.076;2023-03-03T00:04:33;2.13;;;0.95;;
48647;SDS011;34437;-33.956;151.076;2023-03-03T00:06:56;1.17;;;0.90;;
48647;SDS011;34437;-33.956;151.076;2023-03-03T00:09:18;4.05;;;0.93;;
48647;SDS011;34437;-33.956;151.076;2023-03-03T00:11:41;3.65;;;1.40;;
48647;SDS011;34437;-33.956;151.076;2023-03-03T00:14:09;1.42;;;0.88;;
48647;SDS011;34437;-33.956;151.076;2023-03-03T00:16:44;2.22;;;0.90;;
48647;SDS011;34437;-33.956;151.076;2023-03-03T00:19:16;2.58;;;0.90;;
48647;SDS011;34437;-33.956;151.076;2023-03-03T00:21:40;1.23;;;0.85;;
48647;SDS011;34437;-33.956;151.076;2023-03-03T00:24:34;1.20;;;0.90;;
48647;SDS011;34437;-33.956;151.076;2023-03-03T00:26:59;1.80;;;1.00;;
48647;SDS011;34437;-33.956;151.076;2023-03-03T00:32:21;2.10;;;1.10;;
48647;SDS011;34437;-33.956;151.076;2023-03-03T00:35:23;1.40;;;0.70;;
48647;SDS011;34437;-33.956;151.076;2023-03-03T00:37:47;2.15;;;1.10;;
48647;SDS011;34437;-33.956;151.076;2023-03-03T00:40:39;0.98;;;0.80;;
48647;SDS011;34437;-33.956;151.076;2023-03-03T00:43:11;2.65;;;1.33;;
48647;SDS011;34437;-33.956;151.076;2023-03-03T00:45:42;2.35;;;0.90;;
48647;SDS011;34437;-33.956;151.076;2023-03-03T00:48:23;1.38;;;0.85;;
48647;SDS011;34437;-33.956;151.076;2023-03-03T00:50:59;3.38;;;1.00;;
48647;SDS011;34437;-33.956;151.076;2023-03-03T00:53:29;2.45;;;0.90;;
48647;SDS011;34437;-33.956;151.076;2023-03-03T00:55:52;3.08;;;0.82;;
48647;SDS011;34437;-33.956;151.076;2023-03-03T00:58:15;1.38;;;0.90;;
48647;SDS011;34437;-33.956;151.076;2023-03-03T01:00:39;1.55;;;0.73;;
48647;SDS011;34437;-33.956;151.076;2023-03-03T01:03:03;3.20;;;1.33;;
48647;SDS011;34437;-33.956;151.076;2023-03-03T01:05:29;4.22;;;1.23;;
48647;SDS011;34437;-33.956;151.076;2023-03-03T01:07:51;2.00;;;1.00;;
48647;SDS011;34437;-33.956;151.076;2023-03-03T01:10:14;2.22;;;1.40;;
48647;SDS011;34437;-33.956;151.076;2023-03-03T01:12:36;2.25;;;1.38;;
48647;SDS011;34437;-33.956;151.076;2023-03-03T01:14:59;1.85;;;1.05;;
48647;SDS011;34437;-33.956;151.076;2023-03-03T01:17:22;1.45;;;1.00;;
48647;SDS011;34437;-33.956;151.076;2023-03-03T01:19:45;3.20;;;1.50;;
48647;SDS011;34437;-33.956;151.076;2023-03-03T01:22:07;2.60;;;1.23;;
48647;SDS011;34437;-33.956;151.076;2023-03-03T01:24:29;1.52;;;1.15;;
48647;SDS011;34437;-33.956;151.076;2023-03-03T01:26:52;1.08;;;0.98;;
48647;SDS011;34437;-33.956;151.076;2023-03-03T01:29:14;2.58;;;1.20;;
48647;SDS011;34437;-33.956;151.076;2023-03-03T01:31:37;1.77;;;1.08;;
48647;SDS011;34437;-33.956;151.076;2023-03-03T01:34:00;2.63;;;1.10;;
48647;SDS011;34437;-33.956;151.076;2023-03-03T01:36:23;1.83;;;1.00;;
48647;SDS011;34437;-33.956;151.076;2023-03-03T01:38:46;2.55;;;0.98;;
48647;SDS011;34437;-33.956;151.076;2023-03-03T01:41:09;2.25;;;1.10;;
48647;SDS011;34437;-33.956;151.076;2023-03-03T01:43:31;2.92;;;1.17;;
48647;SDS011;34437;-33.956;151.076;2023-03-03T01:48:22;2.75;;;1.10;;
48647;SDS011;34437;-33.956;151.076;2023-03-03T01:50:55;4.50;;;1.20;;
48647;SDS011;34437;-33.956;151.076;2023-03-03T01:53:45;1.10;;;0.80;;
48647;SDS011;34437;-33.956;151.076;2023-03-03T01:56:09;2.10;;;1.17;;
48647;SDS011;34437;-33.956;151.076;2023-03-03T01:58:36;2.30;;;0.90;;
48647;SDS011;34437;-33.956;151.076;2023-03-03T02:01:10;1.30;;;0.95;;
48647;SDS011;34437;-33.956;151.076;2023-03-03T02:03:35;0.82;;;0.82;;
48647;SDS011;34437;-33.956;151.076;2023-03-03T02:05:59;2.88;;;1.10;;
48647;SDS011;34437;-33.956;151.076;2023-03-03T02:08:27;0.85;;;0.60;;
48647;SDS011;34437;-33.956;151.076;2023-03-03T02:10:57;2.03;;;0.70;;
48647;SDS011;34437;-33.956;151.076;2023-03-03T02:13:19;1.08;;;0.80;;
48647;SDS011;34437;-33.956;151.076;2023-03-03T02:15:42;0.88;;;0.70;;
48647;SDS011;34437;-33.956;151.076;2023-03-03T02:18:06;1.75;;;0.65;;
48647;SDS011;34437;-33.956;151.076;2023-03-03T02:25:40;1.05;;;0.73;;
48647;SDS011;34437;-33.956;151.076;2023-03-03T02:28:26;0.90;;;0.50;;
48647;SDS011;34437;-33.956;151.076;2023-03-03T02:30:55;1.05;;;0.70;;
48647;SDS011;34437;-33.956;151.076;2023-03-03T02:33:19;1.63;;;0.65;;
48647;SDS011;34437;-33.956;151.076;2023-03-03T02:35:41;2.15;;;0.70;;
48647;SDS011;34437;-33.956;151.076;2023-03-03T02:41:10;0.65;;;0.60;;
48647;SDS011;34437;-33.956;151.076;2023-03-03T02:43:41;0.60;;;0.50;;
48647;SDS011;34437;-33.956;151.076;2023-03-03T02:46:07;0.60;;;0.57;;
48647;SDS011;34437;-33.956;151.076;2023-03-03T02:48:29;0.75;;;0.60;;
48647;SDS011;34437;-33.956;151.076;2023-03-03T02:50:51;1.33;;;0.60;;
48647;SDS011;34437;-33.956;151.076;2023-03-03T02:53:14;1.05;;;0.70;;
48647;SDS011;34437;-33.956;151.076;2023-03-03T02:55:36;1.63;;;0.70;;
48647;SDS011;34437;-33.956;151.076;2023-03-03T02:57:59;1.45;;;0.70;;
48647;SDS011;34437;-33.956;151.076;2023-03-03T03:00:21;0.75;;;0.45;;
48647;SDS011;34437;-33.956;151.076;2023-03-03T03:02:43;1.15;;;0.55;;
48647;SDS011;34437;-33.956;151.076;2023-03-03T03:05:06;0.73;;;0.50;;
48647;SDS011;34437;-33.956;151.076;2023-03-03T03:07:29;0.45;;;0.30;;
48647;SDS011;34437;-33.956;151.076;2023-03-03T03:09:51;0.68;;;0.52;;
48647;SDS011;34437;-33.956;151.076;2023-03-03T03:12:15;0.47;;;0.40;;
48647;SDS011;34437;-33.956;151.076;2023-03-03T03:14:39;1.27;;;0.50;;
48647;SDS011;34437;-33.956;151.076;2023-03-03T03:17:01;3.60;;;0.52;;
48647;SDS011;34437;-33.956;151.076;2023-03-03T03:19:24;0.85;;;0.55;;
48647;SDS011;34437;-33.956;151.076;2023-03-03T03:21:47;1.80;;;0.40;;
48647;SDS011;34437;-33.956;151.076;2023-03-03T03:24:09;0.93;;;0.35;;
48647;SDS011;34437;-33.956;151.076;2023-03-03T03:26:32;2.28;;;0.50;;
48647;SDS011;34437;-33.956;151.076;2023-03-03T03:28:54;0.85;;;0.40;;
48647;SDS011;34437;-33.956;151.076;2023-03-03T03:31:17;1.30;;;0.40;;
48647;SDS011;34437;-33.956;151.076;2023-03-03T03:33:40;0.45;;;0.40;;
48647;SDS011;34437;-33.956;151.076;2023-03-03T03:36:03;1.00;;;0.65;;
48647;SDS011;34437;-33.956;151.076;2023-03-03T03:38:26;0.52;;;0.30;;
48647;SDS011;34437;-33.956;151.076;2023-03-03T03:40:49;2.55;;;0.70;;
48647;SDS011;34437;-33.956;151.076;2023-03-03T03:43:12;0.60;;;0.40;;
48647;SDS011;34437;-33.956;151.076;2023-03-03T03:45:34;1.40;;;0.50;;
48647;SDS011;34437;-33.956;151.076;2023-03-03T03:47:57;0.50;;;0.30;;
48647;SDS011;34437;-33.956;151.076;2023-03-03T03:50:19;0.63;;;0.37;;
48647;SDS011;34437;-33.956;151.076;2023-03-03T03:52:42;2.53;;;0.45;;
48647;SDS011;34437;-33.956;151.076;2023-03-03T03:55:05;13.50;;;1.58;;
48647;SDS011;34437;-33.956;151.076;2023-03-03T03:57:27;11.30;;;2.17;;
48647;SDS011;34437;-33.956;151.076;2023-03-03T03:59:50;18.80;;;2.08;;
48647;SDS011;34437;-33.956;151.076;2023-03-03T04:02:12;7.65;;;1.75;;
48647;SDS011;34437;-33.956;151.076;2023-03-03T04:04:35;6.45;;;1.23;;
48647;SDS011;34437;-33.956;151.076;2023-03-03T04:06:57;10.57;;;1.40;;
48647;SDS011;34437;-33.956;151.076;2023-03-03T04:09:19;10.52;;;1.60;;
48647;SDS011;34437;-33.956;151.076;2023-03-03T04:11:42;7.53;;;1.42;;
48647;SDS011;34437;-33.956;151.076;2023-03-03T04:14:04;4.70;;;0.82;;
48647;SDS011;34437;-33.956;151.076;2023-03-03T04:16:27;1.27;;;0.60;;
48647;SDS011;34437;-33.956;151.076;2023-03-03T04:18:50;1.92;;;0.63;;
48647;SDS011;34437;-33.956;151.076;2023-03-03T04:21:12;3.67;;;0.75;;
48647;SDS011;34437;-33.956;151.076;2023-03-03T04:23:36;2.17;;;0.80;;
48647;SDS011;34437;-33.956;151.076;2023-03-03T04:25:58;1.13;;;0.47;;
48647;SDS011;34437;-33.956;151.076;2023-03-03T04:28:21;2.97;;;0.60;;
48647;SDS011;34437;-33.956;151.076;2023-03-03T04:30:44;0.93;;;0.40;;
48647;SDS011;34437;-33.956;151.076;2023-03-03T04:33:07;2.40;;;0.77;;
48647;SDS011;34437;-33.956;151.076;2023-03-03T04:35:30;2.35;;;0.75;;
48647;SDS011;34437;-33.956;151.076;2023-03-03T04:37:52;0.90;;;0.55;;
48647;SDS011;34437;-33.956;151.076;2023-03-03T04:40:15;1.42;;;0.40;;
48647;SDS011;34437;-33.956;151.076;2023-03-03T04:42:38;1.10;;;0.38;;
48647;SDS011;34437;-33.956;151.076;2023-03-03T04:45:00;1.52;;;0.80;;
48647;SDS011;34437;-33.956;151.076;2023-03-03T04:47:23;2.67;;;0.60;;
48647;SDS011;34437;-33.956;151.076;2023-03-03T04:49:45;2.97;;;1.00;;
48647;SDS011;34437;-33.956;151.076;2023-03-03T04:52:08;0.82;;;0.60;;
48647;SDS011;34437;-33.956;151.076;2023-03-03T04:54:30;2.60;;;0.60;;
48647;SDS011;34437;-33.956;151.076;2023-03-03T04:56:53;2.15;;;0.77;;
48647;SDS011;34437;-33.956;151.076;2023-03-03T04:59:15;1.55;;;0.50;;
48647;SDS011;34437;-33.956;151.076;2023-03-03T05:01:38;1.40;;;0.68;;
48647;SDS011;34437;-33.956;151.076;2023-03-03T05:04:00;7.20;;;0.93;;
48647;SDS011;34437;-33.956;151.076;2023-03-03T05:06:23;3.78;;;0.70;;
48647;SDS011;34437;-33.956;151.076;2023-03-03T05:08:45;4.10;;;0.70;;
48647;SDS011;34437;-33.956;151.076;2023-03-03T05:11:08;2.67;;;0.70;;
48647;SDS011;34437;-33.956;151.076;2023-03-03T05:13:30;3.28;;;0.80;;
48647;SDS011;34437;-33.956;151.076;2023-03-03T05:15:54;1.25;;;0.52;;
48647;SDS011;34437;-33.956;151.076;2023-03-03T05:18:18;3.65;;;0.60;;
48647;SDS011;34437;-33.956;151.076;2023-03-03T05:20:40;3.40;;;1.20;;
48647;SDS011;34437;-33.956;151.076;2023-03-03T05:23:03;1.15;;;0.50;;
48647;SDS011;34437;-33.956;151.076;2023-03-03T05:25:25;5.22;;;1.48;;
48647;SDS011;34437;-33.956;151.076;2023-03-03T05:27:48;8.93;;;1.65;;
48647;SDS011;34437;-33.956;151.076;2023-03-03T05:30:10;7.75;;;1.40;;
48647;SDS011;34437;-33.956;151.076;2023-03-03T05:32:33;4.22;;;1.15;;
48647;SDS011;34437;-33.956;151.076;2023-03-03T05:34:56;1.52;;;1.15;;
48647;SDS011;34437;-33.956;151.076;2023-03-03T05:37:19;1.52;;;0.63;;
48647;SDS011;34437;-33.956;151.076;2023-03-03T05:39:41;2.65;;;0.52;;
48647;SDS011;34437;-33.956;151.076;2023-03-03T05:42:04;4.93;;;0.70;;
48647;SDS011;34437;-33.956;151.076;2023-03-03T05:44:27;2.42;;;0.60;;
48647;SDS011;34437;-33.956;151.076;2023-03-03T05:46:49;2.95;;;0.65;;
48647;SDS011;34437;-33.956;151.076;2023-03-03T05:49:12;1.80;;;0.95;;
48647;SDS011;34437;-33.956;151.076;2023-03-03T05:51:34;1.95;;;0.43;;
48647;SDS011;34437;-33.956;151.076;2023-03-03T05:53:56;0.95;;;0.47;;
48647;SDS011;34437;-33.956;151.076;2023-03-03T05:56:19;2.92;;;0.65;;
48647;SDS011;34437;-33.956;151.076;2023-03-03T05:58:41;1.88;;;0.60;;
48647;SDS011;34437;-33.956;151.076;2023-03-03T06:01:04;3.85;;;1.17;;
48647;SDS011;34437;-33.956;151.076;2023-03-03T06:03:26;2.35;;;0.30;;
48647;SDS011;34437;-33.956;151.076;2023-03-03T06:05:49;1.05;;;0.30;;
48647;SDS011;34437;-33.956;151.076;2023-03-03T06:08:11;2.78;;;0.40;;
48647;SDS011;34437;-33.956;151.076;2023-03-03T06:10:34;1.25;;;0.68;;
48647;SDS011;34437;-33.956;151.076;2023-03-03T06:12:56;2.23;;;0.63;;
48647;SDS011;34437;-33.956;151.076;2023-03-03T06:15:19;6.32;;;1.08;;
48647;SDS011;34437;-33.956;151.076;2023-03-03T06:17:42;1.17;;;0.45;;
48647;SDS011;34437;-33.956;151.076;2023-03-03T06:20:05;0.50;;;0.30;;
48647;SDS011;34437;-33.956;151.076;2023-03-03T06:22:28;0.60;;;0.60;;
48647;SDS011;34437;-33.956;151.076;2023-03-03T06:24:51;0.47;;;0.38;;
48647;SDS011;34437;-33.956;151.076;2023-03-03T06:27:13;8.88;;;1.23;;
48647;SDS011;34437;-33.956;151.076;2023-03-03T06:29:36;1.77;;;0.43;;
48647;SDS011;34437;-33.956;151.076;2023-03-03T06:31:58;2.70;;;0.60;;
48647;SDS011;34437;-33.956;151.076;2023-03-03T06:34:21;11.02;;;1.13;;
48647;SDS011;34437;-33.956;151.076;2023-03-03T06:36:43;9.13;;;1.88;;
48647;SDS011;34437;-33.956;151.076;2023-03-03T06:39:06;5.43;;;1.15;;
48647;SDS011;34437;-33.956;151.076;2023-03-03T06:41:28;2.58;;;0.77;;
48647;SDS011;34437;-33.956;151.076;2023-03-03T06:43:51;8.23;;;1.77;;
48647;SDS011;34437;-33.956;151.076;2023-03-03T06:46:13;15.52;;;2.50;;
48647;SDS011;34437;-33.956;151.076;2023-03-03T06:48:39;18.05;;;3.05;;
48647;SDS011;34437;-33.956;151.076;2023-03-03T06:51:02;11.88;;;2.38;;
48647;SDS011;34437;-33.956;151.076;2023-03-03T06:53:43;15.98;;;2.80;;
48647;SDS011;34437;-33.956;151.076;2023-03-03T06:56:07;25.45;;;2.63;;
48647;SDS011;34437;-33.956;151.076;2023-03-03T06:58:30;7.80;;;2.40;;
48647;SDS011;34437;-33.956;151.076;2023-03-03T07:00:56;4.82;;;1.80;;
48647;SDS011;34437;-33.956;151.076;2023-03-03T07:03:21;2.78;;;1.60;;
48647;SDS011;34437;-33.956;151.076;2023-03-03T07:05:49;2.80;;;1.58;;
48647;SDS011;34437;-33.956;151.076;2023-03-03T07:08:20;6.25;;;1.60;;
48647;SDS011;34437;-33.956;151.076;2023-03-03T07:10:45;4.55;;;1.75;;
48647;SDS011;34437;-33.956;151.076;2023-03-03T07:13:17;4.00;;;1.67;;
48647;SDS011;34437;-33.956;151.076;2023-03-03T07:15:41;3.25;;;1.30;;
48647;SDS011;34437;-33.956;151.076;2023-03-03T07:18:03;2.05;;;1.35;;
48647;SDS011;34437;-33.956;151.076;2023-03-03T07:24:00;2.17;;;1.40;;
48647;SDS011;34437;-33.956;151.076;2023-03-03T07:26:49;2.75;;;1.60;;
48647;SDS011;34437;-33.956;151.076;2023-03-03T07:31:48;2.70;;;1.60;;
48647;SDS011;34437;-33.956;151.076;2023-03-03T07:34:21;2.42;;;1.50;;
48647;SDS011;34437;-33.956;151.076;2023-03-03T07:36:53;3.67;;;1.92;;
48647;SDS011;34437;-33.956;151.076;2023-03-03T07:39:38;3.80;;;1.50;;
48647;SDS011;34437;-33.956;151.076;2023-03-03T07:44:41;3.65;;;1.30;;
48647;SDS011;34437;-33.956;151.076;2023-03-03T07:47:14;1.83;;;1.17;;
48647;SDS011;34437;-33.956;151.076;2023-03-03T07:49:51;2.05;;;1.27;;
48647;SDS011;34437;-33.956;151.076;2023-03-03T07:55:00;4.32;;;1.63;;
48647;SDS011;34437;-33.956;151.076;2023-03-03T07:57:40;2.03;;;1.30;;
48647;SDS011;34437;-33.956;151.076;2023-03-03T08:02:44;2.63;;;1.52;;
48647;SDS011;34437;-33.956;151.076;2023-03-03T08:05:23;2.70;;;1.50;;
48647;SDS011;34437;-33.956;151.076;2023-03-03T08:08:28;3.80;;;1.45;;
48647;SDS011;34437;-33.956;151.076;2023-03-03T08:15:39;1.40;;;1.05;;
48647;SDS011;34437;-33.956;151.076;2023-03-03T08:18:07;2.30;;;1.40;;
48647;SDS011;34437;-33.956;151.076;2023-03-03T08:20:43;2.28;;;1.40;;
48647;SDS011;34437;-33.956;151.076;2023-03-03T08:23:08;3.33;;;1.27;;
48647;SDS011;34437;-33.956;151.076;2023-03-03T08:25:30;4.00;;;1.23;;
48647;SDS011;34437;-33.956;151.076;2023-03-03T08:27:53;2.53;;;1.17;;
48647;SDS011;34437;-33.956;151.076;2023-03-03T08:30:15;5.07;;;2.15;;
48647;SDS011;34437;-33.956;151.076;2023-03-03T08:32:38;8.40;;;2.80;;
48647;SDS011;34437;-33.956;151.076;2023-03-03T08:35:00;5.85;;;2.50;;
48647;SDS011;34437;-33.956;151.076;2023-03-03T08:37:23;6.72;;;2.58;;
48647;SDS011;34437;-33.956;151.076;2023-03-03T08:39:45;5.85;;;2.55;;
48647;SDS011;34437;-33.956;151.076;2023-03-03T08:42:07;5.10;;;1.95;;
48647;SDS011;34437;-33.956;151.076;2023-03-03T08:44:30;5.03;;;2.05;;
48647;SDS011;34437;-33.956;151.076;2023-03-03T08:46:52;3.63;;;2.00;;
48647;SDS011;34437;-33.956;151.076;2023-03-03T08:49:15;4.65;;;1.67;;
48647;SDS011;34437;-33.956;151.076;2023-03-03T08:51:37;2.88;;;1.38;;
48647;SDS011;34437;-33.956;151.076;2023-03-03T08:54:00;3.65;;;1.48;;
48647;SDS011;34437;-33.956;151.076;2023-03-03T08:56:24;3.25;;;1.30;;
48647;SDS011;34437;-33.956;151.076;2023-03-03T08:58:46;5.07;;;1.52;;
48647;SDS011;34437;-33.956;151.076;2023-03-03T09:01:09;4.10;;;1.75;;
48647;SDS011;34437;-33.956;151.076;2023-03-03T09:03:31;3.10;;;1.45;;
48647;SDS011;34437;-33.956;151.076;2023-03-03T09:05:54;3.05;;;1.58;;
48647;SDS011;34437;-33.956;151.076;2023-03-03T09:08:16;3.20;;;1.52;;
48647;SDS011;34437;-33.956;151.076;2023-03-03T09:10:38;4.45;;;1.70;;
48647;SDS011;34437;-33.956;151.076;2023-03-03T09:13:11;4.53;;;2.00;;
48647;SDS011;34437;-33.956;151.076;2023-03-03T09:15:36;4.30;;;1.83;;
48647;SDS011;34437;-33.956;151.076;2023-03-03T09:18:16;6.00;;;2.20;;
48647;SDS011;34437;-33.956;151.076;2023-03-03T09:20:52;3.78;;;1.67;;
48647;SDS011;34437;-33.956;151.076;2023-03-03T09:25:58;3.50;;;1.50;;
48647;SDS011;34437;-33.956;151.076;2023-03-03T09:28:38;3.25;;;1.83;;
48647;SDS011;34437;-33.956;151.076;2023-03-03T09:31:01;4.35;;;1.90;;
48647;SDS011;34437;-33.956;151.076;2023-03-03T09:33:30;5.82;;;1.65;;
48647;SDS011;34437;-33.956;151.076;2023-03-03T09:36:25;3.38;;;1.60;;
48647;SDS011;34437;-33.956;151.076;2023-03-03T09:38:50;3.78;;;1.48;;
48647;SDS011;34437;-33.956;151.076;2023-03-03T09:56:58;6.15;;;1.38;;
48647;SDS011;34437;-33.956;151.076;2023-03-03T09:59:37;4.07;;;1.52;;
48647;SDS011;34437;-33.956;151.076;2023-03-03T10:08:29;2.72;;;1.40;;
48647;SDS011;34437;-33.956;151.076;2023-03-03T10:11:37;6.18;;;1.75;;
48647;SDS011;34437;-33.956;151.076;2023-03-03T10:19:39;2.17;;;1.10;;
48647;SDS011;34437;-33.956;151.076;2023-03-03T10:25:16;6.13;;;1.30;;
48647;SDS011;34437;-33.956;151.076;2023-03-03T10:37:33;2.63;;;0.90;;
48647;SDS011;34437;-33.956;151.076;2023-03-03T10:50:57;2.40;;;1.33;;
48647;SDS011;34437;-33.956;151.076;2023-03-03T10:58:36;1.83;;;0.93;;
48647;SDS011;34437;-33.956;151.076;2023-03-03T11:01:34;3.63;;;1.48;;
48647;SDS011;34437;-33.956;151.076;2023-03-03T11:04:11;2.10;;;0.85;;
48647;SDS011;34437;-33.956;151.076;2023-03-03T11:07:02;2.42;;;1.05;;
48647;SDS011;34437;-33.956;151.076;2023-03-03T11:20:35;1.65;;;1.30;;
48647;SDS011;34437;-33.956;151.076;2023-03-03T11:25:45;4.88;;;1.35;;
48647;SDS011;34437;-33.956;151.076;2023-03-03T11:28:36;3.70;;;1.25;;
48647;SDS011;34437;-33.956;151.076;2023-03-03T11:36:35;2.03;;;1.20;;
48647;SDS011;34437;-33.956;151.076;2023-03-03T11:39:03;1.60;;;0.90;;
48647;SDS011;34437;-33.956;151.076;2023-03-03T11:47:39;2.70;;;1.38;;
48647;SDS011;34437;-33.956;151.076;2023-03-03T11:52:59;1.73;;;1.20;;
48647;SDS011;34437;-33.956;151.076;2023-03-03T11:55:45;3.45;;;1.48;;
48647;SDS011;34437;-33.956;151.076;2023-03-03T11:58:16;2.75;;;1.38;;
48647;SDS011;34437;-33.956;151.076;2023-03-03T12:00:44;2.85;;;1.33;;
48647;SDS011;34437;-33.956;151.076;2023-03-03T12:05:38;2.90;;;1.67;;
48647;SDS011;34437;-33.956;151.076;2023-03-03T12:13:59;3.88;;;1.60;;
48647;SDS011;34437;-33.956;151.076;2023-03-03T12:19:14;2.40;;;1.23;;
48647;SDS011;34437;-33.956;151.076;2023-03-03T12:27:21;2.35;;;1.50;;
48647;SDS011;34437;-33.956;151.076;2023-03-03T12:29:55;4.25;;;1.42;;
48647;SDS011;34437;-33.956;151.076;2023-03-03T12:35:19;3.33;;;1.30;;
48647;SDS011;34437;-33.956;151.076;2023-03-03T12:41:22;2.58;;;1.60;;
48647;SDS011;34437;-33.956;151.076;2023-03-03T12:46:27;3.88;;;1.40;;
48647;SDS011;34437;-33.956;151.076;2023-03-03T12:49:04;4.57;;;1.63;;
48647;SDS011;34437;-33.956;151.076;2023-03-03T12:51:41;5.38;;;1.30;;
48647;SDS011;34437;-33.956;151.076;2023-03-03T12:57:39;10.57;;;2.03;;
48647;SDS011;34437;-33.956;151.076;2023-03-03T13:08:50;2.05;;;1.17;;
48647;SDS011;34437;-33.956;151.076;2023-03-03T13:14:34;1.50;;;1.30;;
48647;SDS011;34437;-33.956;151.076;2023-03-03T13:20:18;3.30;;;1.55;;
48647;SDS011;34437;-33.956;151.076;2023-03-03T13:23:12;3.15;;;1.80;;
48647;SDS011;34437;-33.956;151.076;2023-03-03T13:30:55;2.88;;;1.58;;
48647;SDS011;34437;-33.956;151.076;2023-03-03T13:33:25;2.75;;;1.65;;
48647;SDS011;34437;-33.956;151.076;2023-03-03T13:38:17;2.10;;;1.30;;
48647;SDS011;34437;-33.956;151.076;2023-03-03T13:40:48;1.67;;;1.20;;
48647;SDS011;34437;-33.956;151.076;2023-03-03T13:43:28;2.65;;;1.40;;
48647;SDS011;34437;-33.956;151.076;2023-03-03T13:56:48;2.20;;;1.50;;
48647;SDS011;34437;-33.956;151.076;2023-03-03T13:59:54;3.78;;;1.80;;
48647;SDS011;34437;-33.956;151.076;2023-03-03T14:07:51;3.22;;;1.80;;
48647;SDS011;34437;-33.956;151.076;2023-03-03T14:10:25;2.13;;;1.38;;
48647;SDS011;34437;-33.956;151.076;2023-03-03T14:15:31;5.82;;;2.08;;
48647;SDS011;34437;-33.956;151.076;2023-03-03T14:20:29;2.88;;;2.10;;
48647;SDS011;34437;-33.956;151.076;2023-03-03T14:26:08;4.55;;;1.80;;
48647;SDS011;34437;-33.956;151.076;2023-03-03T14:28:39;2.97;;;1.92;;
48647;SDS011;34437;-33.956;151.076;2023-03-03T14:31:23;3.20;;;1.98;;
48647;SDS011;34437;-33.956;151.076;2023-03-03T14:34:01;3.72;;;2.33;;
48647;SDS011;34437;-33.956;151.076;2023-03-03T14:36:38;2.92;;;1.80;;
48647;SDS011;34437;-33.956;151.076;2023-03-03T14:39:04;3.83;;;1.92;;
48647;SDS011;34437;-33.956;151.076;2023-03-03T14:41:50;3.20;;;2.42;;
48647;SDS011;34437;-33.956;151.076;2023-03-03T14:44:20;4.18;;;2.08;;
48647;SDS011;34437;-33.956;151.076;2023-03-03T14:47:16;3.58;;;1.80;;
48647;SDS011;34437;-33.956;151.076;2023-03-03T14:49:43;2.33;;;2.00;;
48647;SDS011;34437;-33.956;151.076;2023-03-03T14:54:38;5.00;;;2.15;;
48647;SDS011;34437;-33.956;151.076;2023-03-03T15:03:21;4.18;;;2.10;;
48647;SDS011;34437;-33.956;151.076;2023-03-03T15:05:37;2.72;;;1.90;;
48647;SDS011;34437;-33.956;151.076;2023-03-03T15:08:12;5.72;;;2.10;;
48647;SDS011;34437;-33.956;151.076;2023-03-03T15:10:40;2.50;;;1.67;;
48647;SDS011;34437;-33.956;151.076;2023-03-03T15:13:46;3.72;;;1.85;;
48647;SDS011;34437;-33.956;151.076;2023-03-03T15:18:22;4.18;;;2.10;;
48647;SDS011;34437;-33.956;151.076;2023-03-03T15:26:20;3.03;;;1.65;;
48647;SDS011;34437;-33.956;151.076;2023-03-03T15:29:07;2.50;;;1.42;;
48647;SDS011;34437;-33.956;151.076;2023-03-03T15:32:05;2.85;;;1.77;;
48647;SDS011;34437;-33.956;151.076;2023-03-03T15:40:26;3.30;;;1.67;;
48647;SDS011;34437;-33.956;151.076;2023-03-03T15:45:28;5.82;;;2.20;;
48647;SDS011;34437;-33.956;151.076;2023-03-03T16:05:07;2.47;;;1.85;;
48647;SDS011;34437;-33.956;151.076;2023-03-03T16:15:47;3.75;;;2.10;;
48647;SDS011;34437;-33.956;151.076;2023-03-03T16:23:46;3.45;;;1.58;;
48647;SDS011;34437;-33.956;151.076;2023-03-03T16:39:09;4.07;;;1.80;;
48647;SDS011;34437;-33.956;151.076;2023-03-03T16:45:04;7.65;;;1.83;;
48647;SDS011;34437;-33.956;151.076;2023-03-03T16:58:26;2.00;;;1.30;;
48647;SDS011;34437;-33.956;151.076;2023-03-03T17:01:07;2.17;;;1.20;;
48647;SDS011;34437;-33.956;151.076;2023-03-03T17:11:44;2.10;;;1.48;;
48647;SDS011;34437;-33.956;151.076;2023-03-03T17:17:06;2.80;;;1.48;;
48647;SDS011;34437;-33.956;151.076;2023-03-03T17:22:56;2.15;;;1.25;;
48647;SDS011;34437;-33.956;151.076;2023-03-03T17:33:56;6.47;;;1.30;;
48647;SDS011;34437;-33.956;151.076;2023-03-03T17:44:49;3.25;;;1.33;;
48647;SDS011;34437;-33.956;151.076;2023-03-03T17:58:01;2.20;;;1.10;;
48647;SDS011;34437;-33.956;151.076;2023-03-03T18:06:19;1.35;;;1.05;;
48647;SDS011;34437;-33.956;151.076;2023-03-03T18:22:23;2.13;;;1.13;;
48647;SDS011;34437;-33.956;151.076;2023-03-03T18:40:55;4.10;;;1.40;;
48647;SDS011;34437;-33.956;151.076;2023-03-03T18:46:03;2.72;;;1.58;;
48647;SDS011;34437;-33.956;151.076;2023-03-03T18:57:10;2.80;;;1.55;;
48647;SDS011;34437;-33.956;151.076;2023-03-03T19:04:49;4.35;;;1.77;;
48647;SDS011;34437;-33.956;151.076;2023-03-03T19:09:48;3.05;;;1.25;;
48647;SDS011;34437;-33.956;151.076;2023-03-03T19:12:17;2.20;;;1.20;;
48647;SDS011;34437;-33.956;151.076;2023-03-03T19:14:59;2.67;;;1.38;;
48647;SDS011;34437;-33.956;151.076;2023-03-03T19:19:59;3.08;;;1.73;;
48647;SDS011;34437;-33.956;151.076;2023-03-03T19:22:46;2.40;;;1.52;;
48647;SDS011;34437;-33.956;151.076;2023-03-03T19:33:13;2.30;;;1.27;;
48647;SDS011;34437;-33.956;151.076;2023-03-03T19:38:17;2.33;;;1.48;;
48647;SDS011;34437;-33.956;151.076;2023-03-03T19:41:19;1.77;;;1.48;;
48647;SDS011;34437;-33.956;151.076;2023-03-03T19:43:57;2.35;;;1.27;;
48647;SDS011;34437;-33.956;151.076;2023-03-03T19:46:28;2.67;;;1.30;;
48647;SDS011;34437;-33.956;151.076;2023-03-03T19:49:13;1.80;;;1.20;;
48647;SDS011;34437;-33.956;151.076;2023-03-03T19:51:49;3.38;;;1.70;;
48647;SDS011;34437;-33.956;151.076;2023-03-03T19:56:54;2.63;;;1.58;;
48647;SDS011;34437;-33.956;151.076;2023-03-03T19:59:30;2.17;;;1.00;;
48647;SDS011;34437;-33.956;151.076;2023-03-03T20:05:29;1.65;;;0.90;;
48647;SDS011;34437;-33.956;151.076;2023-03-03T20:13:35;1.90;;;1.30;;
48647;SDS011;34437;-33.956;151.076;2023-03-03T20:19:19;1.60;;;1.20;;
48647;SDS011;34437;-33.956;151.076;2023-03-03T20:22:06;2.22;;;1.45;;
48647;SDS011;34437;-33.956;151.076;2023-03-03T20:25:00;2.42;;;1.20;;
48647;SDS011;34437;-33.956;151.076;2023-03-03T20:30:07;2.10;;;1.15;;
48647;SDS011;34437;-33.956;151.076;2023-03-03T20:38:08;2.97;;;1.30;;
48647;SDS011;34437;-33.956;151.076;2023-03-03T20:43:33;1.55;;;1.00;;
48647;SDS011;34437;-33.956;151.076;2023-03-03T20:46:32;2.22;;;1.15;;
48647;SDS011;34437;-33.956;151.076;2023-03-03T20:52:18;2.90;;;1.55;;
48647;SDS011;34437;-33.956;151.076;2023-03-03T20:54:58;3.40;;;1.33;;
48647;SDS011;34437;-33.956;151.076;2023-03-03T20:57:46;2.20;;;1.17;;
48647;SDS011;34437;-33.956;151.076;2023-03-03T21:00:14;2.30;;;1.00;;
48647;SDS011;34437;-33.956;151.076;2023-03-03T21:05:24;3.13;;;1.20;;
48647;SDS011;34437;-33.956;151.076;2023-03-03T21:08:02;2.63;;;1.00;;
48647;SDS011;34437;-33.956;151.076;2023-03-03T21:10:29;2.40;;;0.90;;
48647;SDS011;34437;-33.956;151.076;2023-03-03T21:12:56;1.65;;;0.88;;
48647;SDS011;34437;-33.956;151.076;2023-03-03T21:15:38;1.95;;;0.93;;
48647;SDS011;34437;-33.956;151.076;2023-03-03T21:18:17;3.03;;;1.40;;